Terminal Aerodrome Forecast
Issued by NWS

Home | Current Version | Previous Version | Text Only | Print | Product List | Glossary On
Versions: 1 2 3 4 5 6 7 8 9 10 11 12 13 14 15 16 17 18
000
FTUS46 KSEW 052300
TAFHQM
TAF
KHQM 052320Z 0600/0624 22014KT P6SM BKN045 BKN060
     FM060100 24010KT P6SM -SHRA SCT025 BKN040 BKN060
     FM060700 VRB03KT P6SM VCSH BKN025 BKN050
     FM061800 27012KT P6SM SCT025 SCT050=

USA.gov is the U.S. government's official web portal to all federal, state and local government web resources and services.